Time;durP1;ratioP1;P1;durP2;ratioP2;P2;SDS_P1;SDS_P2;PMS_P1;PMS_P2;Temp;Humidity;BMP_temperature;BMP_pressure;BME280_temperature;BME280_humidity;BME280_pressure;Samples;Min_cycle;Max_cycle;Signal;HPM_P1;HPM_P2
2022/07/25 00:02:25;;;;;;;;;;;;;;;19.51;65.90;100748.47;5003963;28;19926;-80
2022/07/25 00:04:50;;;;;;;;;;;;;;;19.48;66.25;100745.16;5006426;28;20530;-80
2022/07/25 00:07:15;;;;;;;;;;;;;;;19.50;66.13;100740.63;5003652;28;20396;-79
2022/07/25 00:09:41;;;;;;;;;;;;;;;19.46;67.20;100733.88;5006351;28;19921;-80
2022/07/25 00:12:06;;;;;;;;;;;;;;;19.43;67.46;100734.06;5002470;28;19929;-80
2022/07/25 00:14:31;;;;;;;;;;;;;;;19.39;67.94;100737.78;5003110;28;19971;-80
2022/07/25 00:16:57;;;;;;;;;;;;;;;19.36;67.33;100730.91;5002267;28;20983;-79
2022/07/25 00:19:22;;;;;;;;;;;;;;;19.36;67.59;100733.56;5009052;28;20450;-79
2022/07/25 00:21:48;;;;;;;;;;;;;;;19.38;67.25;100730.81;5007022;28;19926;-80
2022/07/25 00:24:13;;;;;;;;;;;;;;;19.32;68.29;100726.75;5002984;28;19928;-80
2022/07/25 00:26:38;;;;;;;;;;;;;;;19.35;67.58;100720.44;4998859;28;19971;-80
2022/07/25 00:29:04;;;;;;;;;;;;;;;19.35;67.92;100712.56;4997758;28;19932;-79
2022/07/25 00:31:29;;;;;;;;;;;;;;;19.29;68.35;100720.81;4998928;28;20380;-79
2022/07/25 00:33:55;;;;;;;;;;;;;;;19.25;68.21;100713.03;5006394;28;19953;-79
2022/07/25 00:36:20;;;;;;;;;;;;;;;19.24;67.95;100703.47;5004378;28;20364;-80
2022/07/25 00:38:45;;;;;;;;;;;;;;;19.26;67.37;100698.09;5005417;28;19936;-79
2022/07/25 00:41:11;;;;;;;;;;;;;;;19.19;67.73;100694.97;5006265;28;19925;-80
2022/07/25 00:43:36;;;;;;;;;;;;;;;19.22;66.91;100694.78;5003813;28;19921;-80
2022/07/25 00:46:01;;;;;;;;;;;;;;;19.19;66.71;100689.69;5003588;28;19937;-80
2022/07/25 00:48:27;;;;;;;;;;;;;;;19.21;66.14;100692.25;5002680;28;19949;-80
2022/07/25 00:50:53;;;;;;;;;;;;;;;19.23;66.53;100693.84;5006451;28;19929;-80
2022/07/25 00:53:18;;;;;;;;;;;;;;;19.24;66.28;100687.66;5001472;28;20017;-79
2022/07/25 00:55:44;;;;;;;;;;;;;;;19.23;65.04;100693.84;5004757;28;19925;-80
2022/07/25 00:58:10;;;;;;;;;;;;;;;19.21;66.58;100695.75;5021928;28;19917;-80
2022/07/25 01:00:35;;;;;;;;;;;;;;;19.20;66.58;100694.03;5001960;28;19972;-80
2022/07/25 01:03:00;;;;;;;;;;;;;;;19.17;66.81;100681.03;4997399;28;20802;-80
2022/07/25 01:05:26;;;;;;;;;;;;;;;19.17;66.28;100677.56;5002503;28;19929;-80
2022/07/25 01:07:51;;;;;;;;;;;;;;;19.17;66.10;100674.94;5004031;28;19943;-80
2022/07/25 01:10:17;;;;;;;;;;;;;;;19.18;66.51;100674.00;5000736;28;19921;-79
2022/07/25 01:12:52;;;;;;;;;;;;;;;19.14;66.20;100668.06;5006221;28;19918;-80
2022/07/25 01:15:18;;;;;;;;;;;;;;;19.16;66.70;100674.06;5004773;28;19921;-80
2022/07/25 01:17:44;;;;;;;;;;;;;;;19.15;66.20;100661.00;5003487;28;19922;-79
2022/07/25 01:20:28;;;;;;;;;;;;;;;19.15;65.72;100664.50;5001971;28;20396;-80
2022/07/25 01:22:53;;;;;;;;;;;;;;;19.12;66.31;100669.94;5001646;28;19922;-80
2022/07/25 01:25:19;;;;;;;;;;;;;;;19.17;65.60;100659.13;5001846;28;19976;-79
2022/07/25 01:27:45;;;;;;;;;;;;;;;19.17;65.93;100664.41;5003313;28;19951;-80
2022/07/25 01:30:11;;;;;;;;;;;;;;;19.12;66.58;100671.72;5005822;28;19921;-80
2022/07/25 01:32:37;;;;;;;;;;;;;;;19.10;66.66;100661.28;5002801;28;19921;-80
2022/07/25 01:35:04;;;;;;;;;;;;;;;19.09;67.04;100667.47;4996161;28;19967;-80
2022/07/25 01:37:29;;;;;;;;;;;;;;;19.07;66.96;100674.63;4990860;28;19921;-79
2022/07/25 01:39:54;;;;;;;;;;;;;;;19.07;66.92;100668.50;4999445;28;19930;-80
2022/07/25 01:42:20;;;;;;;;;;;;;;;19.06;66.85;100667.66;5000475;28;19949;-80
2022/07/25 01:44:45;;;;;;;;;;;;;;;19.04;67.02;100659.00;4996131;28;20013;-80
2022/07/25 01:47:10;;;;;;;;;;;;;;;18.97;67.48;100662.06;4999913;28;20056;-80
2022/07/25 01:49:36;;;;;;;;;;;;;;;18.99;66.87;100663.66;5004451;28;20396;-79
2022/07/25 01:52:01;;;;;;;;;;;;;;;19.01;67.11;100659.19;4997631;28;20008;-80
2022/07/25 01:54:26;;;;;;;;;;;;;;;19.00;66.98;100660.13;4996793;28;20052;-80
2022/07/25 01:56:52;;;;;;;;;;;;;;;18.98;66.83;100647.97;5001705;28;20039;-80
2022/07/25 01:59:17;;;;;;;;;;;;;;;18.96;67.02;100652.47;4997412;28;19932;-80
2022/07/25 02:01:42;;;;;;;;;;;;;;;18.90;67.72;100656.28;5002715;28;19932;-79
2022/07/25 02:04:08;;;;;;;;;;;;;;;18.95;66.72;100653.41;4998750;28;20171;-80
2022/07/25 02:06:34;;;;;;;;;;;;;;;18.96;67.21;100652.47;5005018;28;19925;-80
2022/07/25 02:08:59;;;;;;;;;;;;;;;18.97;66.87;100643.66;5002013;28;19921;-80
2022/07/25 02:11:25;;;;;;;;;;;;;;;18.98;67.26;100637.44;4999899;28;19932;-80
2022/07/25 02:13:50;;;;;;;;;;;;;;;18.96;67.72;100629.63;5006132;28;19976;-79
2022/07/25 02:16:16;;;;;;;;;;;;;;;18.97;67.00;100631.34;5001274;28;19969;-79
2022/07/25 02:18:41;;;;;;;;;;;;;;;18.94;66.97;100631.50;5003437;28;19918;-80
2022/07/25 02:21:09;;;;;;;;;;;;;;;18.90;67.09;100632.59;5000556;28;19930;-79
2022/07/25 02:23:34;;;;;;;;;;;;;;;18.88;67.59;100629.22;4991263;28;20327;-80
2022/07/25 02:26:00;;;;;;;;;;;;;;;18.91;67.11;100628.19;5003203;28;19930;-80
2022/07/25 02:28:25;;;;;;;;;;;;;;;18.86;67.44;100628.47;4999725;28;20008;-79
2022/07/25 02:30:50;;;;;;;;;;;;;;;18.88;67.24;100631.84;4999030;28;20352;-80
2022/07/25 02:33:16;;;;;;;;;;;;;;;18.86;66.05;100625.00;4996005;28;19928;-80
2022/07/25 02:35:41;;;;;;;;;;;;;;;18.84;67.15;100624.25;5004210;28;19922;-80
2022/07/25 02:38:06;;;;;;;;;;;;;;;18.85;67.33;100620.66;5004022;28;19926;-80
2022/07/25 02:40:32;;;;;;;;;;;;;;;18.80;67.09;100620.94;4993606;28;19929;-79
2022/07/25 02:42:57;;;;;;;;;;;;;;;18.81;67.24;100619.97;4994385;28;19926;-80
2022/07/25 02:45:22;;;;;;;;;;;;;;;18.81;66.94;100612.09;4993823;28;20013;-79
2022/07/25 02:47:48;;;;;;;;;;;;;;;18.82;66.88;100611.16;5019007;28;19983;-80
2022/07/25 02:50:13;;;;;;;;;;;;;;;18.81;67.04;100611.25;4996654;28;19921;-79
2022/07/25 02:52:39;;;;;;;;;;;;;;;18.82;66.57;100610.31;5003120;28;19967;-80
2022/07/25 02:55:04;;;;;;;;;;;;;;;18.79;66.77;100602.59;4999676;28;19918;-80
2022/07/25 02:57:30;;;;;;;;;;;;;;;18.81;66.63;100604.19;4999990;28;19929;-80
2022/07/25 02:59:55;;;;;;;;;;;;;;;18.76;66.58;100602.75;5001030;28;19925;-79
2022/07/25 03:02:20;;;;;;;;;;;;;;;18.79;66.90;100605.22;5000062;28;19926;-80
2022/07/25 03:04:46;;;;;;;;;;;;;;;18.76;66.80;100605.38;4999858;28;19929;-79
2022/07/25 03:07:11;;;;;;;;;;;;;;;18.74;67.30;100610.75;4999966;28;19925;-79
2022/07/25 03:09:37;;;;;;;;;;;;;;;18.78;66.59;100601.72;5007200;28;19929;-80
2022/07/25 03:12:02;;;;;;;;;;;;;;;18.69;66.82;100597.84;5008812;28;19921;-80
2022/07/25 03:14:27;;;;;;;;;;;;;;;18.74;66.90;100597.59;4995861;28;19980;-80
2022/07/25 03:16:53;;;;;;;;;;;;;;;18.72;67.17;100588.09;5002968;28;20528;-80
2022/07/25 03:19:18;;;;;;;;;;;;;;;18.75;67.53;100586.13;5006336;28;19917;-79
2022/07/25 03:21:44;;;;;;;;;;;;;;;18.74;66.78;100589.72;5004126;28;19949;-80
2022/07/25 03:24:10;;;;;;;;;;;;;;;18.69;67.48;100583.84;5003429;28;20268;-80
2022/07/25 03:26:35;;;;;;;;;;;;;;;18.73;66.80;100579.25;5004971;28;20012;-80
2022/07/25 03:29:01;;;;;;;;;;;;;;;18.73;67.57;100585.38;5007214;28;20388;-80
2022/07/25 03:31:27;;;;;;;;;;;;;;;18.69;67.04;100582.06;4999353;28;19925;-79
2022/07/25 03:33:52;;;;;;;;;;;;;;;18.70;66.99;100580.28;5003852;28;19914;-79
2022/07/25 03:36:18;;;;;;;;;;;;;;;18.69;66.83;100568.03;5001212;28;19969;-79
2022/07/25 03:38:43;;;;;;;;;;;;;;;18.69;66.81;100568.91;5002521;28;19922;-80
2022/07/25 03:41:08;;;;;;;;;;;;;;;18.68;66.18;100567.22;5005707;28;19940;-80
2022/07/25 03:43:34;;;;;;;;;;;;;;;18.68;66.36;100566.38;5001821;28;20893;-79
2022/07/25 03:45:59;;;;;;;;;;;;;;;18.69;65.49;100558.38;4991129;28;19945;-79
2022/07/25 03:48:24;;;;;;;;;;;;;;;18.70;65.98;100561.84;5005146;28;19925;-79
2022/07/25 03:50:50;;;;;;;;;;;;;;;18.68;65.69;100558.47;5000669;28;20008;-80
2022/07/25 03:53:15;;;;;;;;;;;;;;;18.63;66.38;100553.47;4999470;28;19933;-79
2022/07/25 03:55:40;;;;;;;;;;;;;;;18.63;65.92;100550.84;5006952;28;19936;-79
2022/07/25 03:58:06;;;;;;;;;;;;;;;18.63;66.00;100548.19;5006857;28;19979;-80
2022/07/25 04:00:31;;;;;;;;;;;;;;;18.63;66.04;100549.97;5004763;28;20421;-80
2022/07/25 04:02:56;;;;;;;;;;;;;;;18.65;65.80;100541.09;5000405;28;19922;-80
2022/07/25 04:05:22;;;;;;;;;;;;;;;18.60;66.25;100543.13;5002207;28;19929;-79
2022/07/25 04:07:47;;;;;;;;;;;;;;;18.65;66.44;100546.34;5006955;28;19983;-80
2022/07/25 04:10:12;;;;;;;;;;;;;;;18.63;66.09;100539.47;5004724;28;20603;-80
2022/07/25 04:12:38;;;;;;;;;;;;;;;18.65;66.35;100538.47;4999008;28;19925;-80
2022/07/25 04:15:03;;;;;;;;;;;;;;;18.66;66.56;100539.28;5004367;28;20028;-80
2022/07/25 04:17:29;;;;;;;;;;;;;;;18.66;66.55;100537.50;5006420;28;20015;-79
2022/07/25 04:19:54;;;;;;;;;;;;;;;18.66;66.28;100537.50;5003912;28;19929;-80
2022/07/25 04:22:19;;;;;;;;;;;;;;;18.66;66.15;100534.03;5007279;28;19926;-80
2022/07/25 04:24:45;;;;;;;;;;;;;;;18.66;66.90;100539.28;5003761;28;19937;-79
2022/07/25 04:27:11;;;;;;;;;;;;;;;18.69;66.32;100539.09;5004405;28;19930;-79
2022/07/25 04:29:36;;;;;;;;;;;;;;;18.69;66.53;100529.44;5005938;28;20016;-79
2022/07/25 04:32:02;;;;;;;;;;;;;;;18.69;66.89;100529.44;5007764;28;20668;-79
2022/07/25 04:34:27;;;;;;;;;;;;;;;18.67;67.55;100527.81;5010751;28;20384;-80
2022/07/25 04:36:52;;;;;;;;;;;;;;;18.67;67.34;100518.16;5005012;28;19957;-79
2022/07/25 04:39:18;;;;;;;;;;;;;;;18.73;67.15;100516.94;5007494;28;19917;-79
2022/07/25 04:41:43;;;;;;;;;;;;;;;18.73;67.03;100521.34;4999619;28;19940;-79
2022/07/25 04:44:08;;;;;;;;;;;;;;;18.73;67.67;100519.59;4999038;28;19945;-80
2022/07/25 04:46:34;;;;;;;;;;;;;;;18.79;67.48;100521.00;5004145;28;19922;-79
2022/07/25 04:49:00;;;;;;;;;;;;;;;18.82;67.37;100515.56;5004752;28;19922;-80
2022/07/25 04:51:25;;;;;;;;;;;;;;;18.80;67.31;100518.28;5005665;28;19921;-79
2022/07/25 04:53:50;;;;;;;;;;;;;;;18.83;68.33;100512.84;5004315;28;19926;-80
2022/07/25 04:56:16;;;;;;;;;;;;;;;18.88;67.46;100510.78;5006032;28;19922;-79
2022/07/25 04:58:41;;;;;;;;;;;;;;;18.89;67.83;100501.97;5010348;28;19917;-79
2022/07/25 05:01:06;;;;;;;;;;;;;;;18.94;68.39;100504.31;5006394;28;19941;-79
2022/07/25 05:03:32;;;;;;;;;;;;;;;18.96;67.80;100505.91;5005069;28;19928;-80
2022/07/25 05:05:57;;;;;;;;;;;;;;;19.01;66.69;100505.66;5018968;28;20419;-79
2022/07/25 05:08:22;;;;;;;;;;;;;;;19.06;66.63;100500.94;4997830;28;19937;-81
2022/07/25 05:10:48;;;;;;;;;;;;;;;19.13;67.26;100503.09;5000776;28;20375;-80
2022/07/25 05:13:13;;;;;;;;;;;;;;;19.16;66.83;100504.72;5007517;28;20017;-80
2022/07/25 05:15:38;;;;;;;;;;;;;;;19.21;66.16;100500.00;5008281;28;19977;-80
2022/07/25 05:18:06;;;;;;;;;;;;;;;19.25;66.10;100497.09;5007197;28;20299;-80
2022/07/25 05:20:34;;;;;;;;;;;;;;;19.28;66.72;100495.22;5004088;28;19918;-80
2022/07/25 05:23:00;;;;;;;;;;;;;;;19.30;65.99;100490.75;4999787;28;19922;-80
2022/07/25 05:25:25;;;;;;;;;;;;;;;19.35;66.68;100486.03;5005897;28;19931;-80
2022/07/25 05:27:53;;;;;;;;;;;;;;;19.37;66.65;100492.06;5008976;28;19974;-80
2022/07/25 05:30:18;;;;;;;;;;;;;;;19.39;66.26;100485.75;5007924;28;19918;-80
2022/07/25 05:32:44;;;;;;;;;;;;;;;19.42;65.29;100487.34;5002946;28;19928;-80
2022/07/25 05:35:09;;;;;;;;;;;;;;;19.43;65.20;100486.41;5005402;28;19960;-80
2022/07/25 05:37:35;;;;;;;;;;;;;;;19.43;65.21;100489.06;5008054;28;19929;-80
2022/07/25 05:40:01;;;;;;;;;;;;;;;19.45;64.92;100479.25;5003084;28;19925;-80
2022/07/25 05:42:27;;;;;;;;;;;;;;;19.47;64.32;100475.59;5009242;28;19925;-80
2022/07/25 05:44:52;;;;;;;;;;;;;;;19.48;64.90;100479.06;5003210;28;19975;-80
2022/07/25 05:47:18;;;;;;;;;;;;;;;19.47;66.20;100464.19;5003886;28;20008;-80
2022/07/25 05:49:43;;;;;;;;;;;;;;;19.45;65.68;100471.34;5004668;28;20045;-80
2022/07/25 05:52:09;;;;;;;;;;;;;;;19.47;65.84;100464.19;5006829;28;20004;-80
2022/07/25 05:54:34;;;;;;;;;;;;;;;19.55;62.61;100454.03;5005495;28;19984;-79
2022/07/25 05:57:00;;;;;;;;;;;;;;;19.52;65.60;100460.31;5004323;28;20156;-80
2022/07/25 05:59:26;;;;;;;;;;;;;;;19.47;66.27;100464.19;5000105;28;19921;-80
2022/07/25 06:01:51;;;;;;;;;;;;;;;19.49;66.30;100459.69;5002075;28;19934;-80
2022/07/25 06:04:16;;;;;;;;;;;;;;;19.52;62.91;100448.97;5007220;28;19952;-80
2022/07/25 06:06:42;;;;;;;;;;;;;;;19.55;64.22;100454.88;5000576;28;19928;-80
2022/07/25 06:09:07;;;;;;;;;;;;;;;19.57;64.65;100452.16;5005540;28;20004;-80
2022/07/25 06:11:32;;;;;;;;;;;;;;;19.52;65.27;100454.22;4997982;28;19922;-79
2022/07/25 06:13:58;;;;;;;;;;;;;;;19.50;66.30;100453.47;5007080;28;19918;-80
2022/07/25 06:16:23;;;;;;;;;;;;;;;19.48;66.20;100458.00;5006658;28;19924;-79
2022/07/25 06:18:49;;;;;;;;;;;;;;;19.48;65.92;100450.09;5024111;28;20012;-80
2022/07/25 06:21:14;;;;;;;;;;;;;;;19.50;66.28;100454.31;5004580;28;19968;-80
2022/07/25 06:23:39;;;;;;;;;;;;;;;19.50;66.43;100450.81;5005587;28;20291;-80
2022/07/25 06:26:09;;;;;;;;;;;;;;;19.50;66.22;100454.31;5006639;28;19921;-80
2022/07/25 06:28:34;;;;;;;;;;;;;;;19.51;66.05;100452.53;5002801;28;19997;-80
2022/07/25 06:30:59;;;;;;;;;;;;;;;19.51;66.44;100455.16;5002928;28;20001;-79
2022/07/25 06:33:25;;;;;;;;;;;;;;;19.50;66.88;100450.81;5006183;28;19922;-80
2022/07/25 06:35:50;;;;;;;;;;;;;;;19.49;67.01;100455.25;5001166;28;20302;-80
2022/07/25 06:38:15;;;;;;;;;;;;;;;19.50;65.81;100450.81;5009222;28;20596;-80
2022/07/25 06:40:41;;;;;;;;;;;;;;;19.52;65.36;100443.69;5002882;28;20373;-80
2022/07/25 06:43:06;;;;;;;;;;;;;;;19.52;65.44;100443.69;5008821;28;19952;-79
2022/07/25 06:45:32;;;;;;;;;;;;;;;19.71;62.27;100441.56;5005768;28;19923;-80
2022/07/25 06:47:57;;;;;;;;;;;;;;;19.64;64.57;100443.75;5003624;28;20277;-79
2022/07/25 06:50:22;;;;;;;;;;;;;;;19.69;64.27;100435.56;5002112;28;19921;-80
2022/07/25 06:52:48;;;;;;;;;;;;;;;19.70;63.71;100442.50;4996226;28;20461;-80
2022/07/25 06:55:14;;;;;;;;;;;;;;;19.80;63.79;100440.97;4983108;28;19918;-80
2022/07/25 06:57:39;;;;;;;;;;;;;;;19.65;64.63;100442.81;5008342;28;20065;-80
2022/07/25 07:00:08;;;;;;;;;;;;;;;19.63;64.60;100439.44;4998205;28;19953;-80
2022/07/25 07:02:34;;;;;;;;;;;;;;;19.74;64.13;100438.75;4999702;28;19934;-79
2022/07/25 07:04:59;;;;;;;;;;;;;;;19.74;64.40;100444.00;5006473;28;19928;-80
2022/07/25 07:07:24;;;;;;;;;;;;;;;19.70;64.30;100438.09;5005221;28;20612;-79
2022/07/25 07:09:50;;;;;;;;;;;;;;;19.68;64.43;100436.50;5004318;28;19925;-80
2022/07/25 07:12:15;;;;;;;;;;;;;;;19.67;64.64;100425.09;5006427;28;19956;-79
2022/07/25 07:14:43;;;;;;;;;;;;;;;19.68;64.52;100428.59;5010983;28;19975;-79
2022/07/25 07:17:08;;;;;;;;;;;;;;;19.70;64.55;100431.97;5003622;28;19934;-80
2022/07/25 07:19:33;;;;;;;;;;;;;;;19.73;64.09;100434.41;5003157;28;20021;-80
2022/07/25 07:21:59;;;;;;;;;;;;;;;19.69;64.20;100425.88;5006379;28;20568;-80
2022/07/25 07:24:24;;;;;;;;;;;;;;;19.67;64.58;100422.47;5004977;28;20040;-80
2022/07/25 07:26:50;;;;;;;;;;;;;;;19.68;64.70;100416.25;5007972;28;19922;-80
2022/07/25 07:29:15;;;;;;;;;;;;;;;19.67;64.60;100417.19;5002521;28;20008;-80
2022/07/25 07:31:40;;;;;;;;;;;;;;;19.70;64.54;100411.72;4995255;28;20057;-80
2022/07/25 07:34:06;;;;;;;;;;;;;;;19.70;64.52;100422.28;5005743;28;19925;-80
2022/07/25 07:36:31;;;;;;;;;;;;;;;20.00;63.82;100416.81;5007914;28;20291;-80
2022/07/25 07:38:57;;;;;;;;;;;;;;;19.86;64.18;100419.50;5008429;28;19922;-80
2022/07/25 07:41:22;;;;;;;;;;;;;;;19.91;64.34;100413.91;5005624;28;19925;-80
2022/07/25 07:43:47;;;;;;;;;;;;;;;19.83;64.77;100413.56;5007259;28;19917;-79
2022/07/25 07:46:13;;;;;;;;;;;;;;;19.77;64.33;100409.56;5008465;28;20003;-80
2022/07/25 07:48:38;;;;;;;;;;;;;;;19.74;64.58;100415.88;5007530;28;19929;-80
2022/07/25 07:51:04;;;;;;;;;;;;;;;19.80;64.56;100415.47;5000130;28;19936;-79
2022/07/25 07:56:14;;;;;;;;;;;;;;;19.76;64.50;100408.69;4999296;28;19924;-80
2022/07/25 07:58:40;;;;;;;;;;;;;;;19.77;64.50;100407.75;5010367;28;19917;-79
2022/07/25 08:01:05;;;;;;;;;;;;;;;19.99;63.66;100398.47;5003205;28;20347;-80
2022/07/25 08:03:31;;;;;;;;;;;;;;;19.92;63.82;100408.56;4998802;28;20381;-80
2022/07/25 08:05:56;;;;;;;;;;;;;;;19.90;64.46;100392.00;5009449;28;19921;-79
2022/07/25 08:08:22;;;;;;;;;;;;;;;19.97;63.72;100408.25;5005797;28;20283;-80
2022/07/25 08:10:48;;;;;;;;;;;;;;;19.91;63.98;100406.00;5005684;28;19922;-80
2022/07/25 08:13:18;;;;;;;;;;;;;;;19.84;64.20;100400.31;5002712;28;20015;-80
2022/07/25 08:15:44;;;;;;;;;;;;;;;19.86;64.21;100401.06;5011221;28;20004;-80
2022/07/25 08:18:10;;;;;;;;;;;;;;;20.10;63.83;100407.38;5009808;28;19930;-80
2022/07/25 08:20:36;;;;;;;;;;;;;;;20.12;63.24;100402.00;5011572;28;19924;-79
2022/07/25 08:23:02;;;;;;;;;;;;;;;20.07;63.77;100401.44;5006641;28;19976;-80
2022/07/25 08:25:28;;;;;;;;;;;;;;;19.96;63.91;100401.31;5006197;28;20605;-79
2022/07/25 08:27:53;;;;;;;;;;;;;;;20.16;63.15;100408.78;5001644;28;19914;-80
2022/07/25 08:30:18;;;;;;;;;;;;;;;20.42;60.94;100393.81;5004005;28;19925;-80
2022/07/25 08:32:51;;;;;;;;;;;;;;;20.16;63.10;100403.50;5002598;28;20511;-80
2022/07/25 08:35:17;;;;;;;;;;;;;;;20.08;63.09;100388.19;4995134;28;19929;-80
2022/07/25 08:37:43;;;;;;;;;;;;;;;20.02;63.68;100400.91;4996899;28;20284;-79
2022/07/25 08:40:09;;;;;;;;;;;;;;;20.16;63.67;100393.78;5009834;28;19929;-80
2022/07/25 08:42:37;;;;;;;;;;;;;;;20.26;62.76;100394.03;5012383;28;20012;-80
2022/07/25 08:45:04;;;;;;;;;;;;;;;20.21;63.61;100401.38;5010386;28;20380;-80
2022/07/25 08:47:30;;;;;;;;;;;;;;;20.10;63.81;100404.75;5011088;28;19918;-79
2022/07/25 08:49:56;;;;;;;;;;;;;;;20.06;64.63;100411.13;5011890;28;19917;-79
2022/07/25 08:52:21;;;;;;;;;;;;;;;20.02;63.79;100416.72;5010373;28;20304;-80
2022/07/25 08:54:48;;;;;;;;;;;;;;;20.00;63.69;100416.81;5008227;28;19965;-80
2022/07/25 08:57:14;;;;;;;;;;;;;;;20.00;64.61;100414.16;5001311;28;19941;-79
2022/07/25 08:59:39;;;;;;;;;;;;;;;20.09;63.47;100408.31;5009553;28;19917;-80
2022/07/25 09:02:07;;;;;;;;;;;;;;;20.05;63.99;100417.38;5003164;28;19922;-79
2022/07/25 09:04:33;;;;;;;;;;;;;;;20.12;63.90;100429.22;5006513;28;20500;-80
2022/07/25 09:07:00;;;;;;;;;;;;;;;20.16;63.10;100421.97;4998063;28;19924;-79
2022/07/25 09:09:29;;;;;;;;;;;;;;;20.13;63.75;100422.16;5007749;28;19918;-79
2022/07/25 09:11:55;;;;;;;;;;;;;;;20.11;63.20;100418.78;5002696;28;19987;-80
2022/07/25 09:14:20;;;;;;;;;;;;;;;20.03;64.55;100406.06;5003437;28;20439;-79
2022/07/25 09:16:45;;;;;;;;;;;;;;;20.05;64.11;100408.59;4999942;28;20470;-80
2022/07/25 09:19:15;;;;;;;;;;;;;;;20.14;63.91;100422.06;5007566;28;19917;-79
2022/07/25 09:21:41;;;;;;;;;;;;;;;20.07;63.64;100417.25;5007591;28;19925;-80
2022/07/25 09:24:17;;;;;;;;;;;;;;;20.42;61.73;100404.38;5005866;28;20016;-80
2022/07/25 09:26:43;;;;;;;;;;;;;;;20.33;62.82;100413.75;4999307;28;19922;-80
2022/07/25 09:29:15;;;;;;;;;;;;;;;20.54;61.12;100401.75;5009976;28;19917;-79
2022/07/25 09:31:49;;;;;;;;;;;;;;;20.23;62.69;100410.88;5005665;28;20672;-80
2022/07/25 09:34:33;;;;;;;;;;;;;;;20.20;62.91;100408.44;5009330;28;19927;-80
2022/07/25 09:37:01;;;;;;;;;;;;;;;20.32;62.95;100423.47;5010828;28;19924;-80
2022/07/25 09:39:34;;;;;;;;;;;;;;;20.25;63.25;100413.44;5005688;28;19932;-80
2022/07/25 09:41:59;;;;;;;;;;;;;;;20.41;62.55;100419.41;5010280;28;20418;-80
2022/07/25 09:44:31;;;;;;;;;;;;;;;20.84;58.53;100425.22;5000672;28;19950;-79
2022/07/25 09:46:59;;;;;;;;;;;;;;;20.92;59.52;100424.75;4999876;28;19937;-80
2022/07/25 09:49:25;;;;;;;;;;;;;;;20.41;62.19;100429.09;5001304;28;19927;-79
2022/07/25 09:51:51;;;;;;;;;;;;;;;21.31;57.18;100432.50;5003942;28;19933;-80
2022/07/25 09:54:17;;;;;;;;;;;;;;;21.79;54.25;100431.66;4996421;28;19929;-80
2022/07/25 09:56:43;;;;;;;;;;;;;;;21.98;54.16;100431.16;5003128;28;19922;-80
2022/07/25 09:59:08;;;;;;;;;;;;;;;21.10;58.12;100429.56;5000860;28;20020;-80
2022/07/25 10:01:35;;;;;;;;;;;;;;;21.54;55.83;100438.81;5001043;28;19969;-79
2022/07/25 10:04:12;;;;;;;;;;;;;;;21.37;56.48;100434.69;5007048;28;19924;-80
2022/07/25 10:06:39;;;;;;;;;;;;;;;22.12;52.90;100436.28;5005721;28;19928;-81
2022/07/25 10:09:11;;;;;;;;;;;;;;;22.13;51.74;100432.69;5007810;28;19917;-80
2022/07/25 10:11:37;;;;;;;;;;;;;;;21.73;54.17;100445.31;5007806;28;19928;-80
2022/07/25 10:14:08;;;;;;;;;;;;;;;21.76;54.33;100442.47;5010386;28;19917;-80
2022/07/25 10:16:43;;;;;;;;;;;;;;;21.71;54.69;100452.53;5005243;28;20307;-80
2022/07/25 10:19:08;;;;;;;;;;;;;;;21.63;54.91;100454.03;5024625;28;19917;-80
2022/07/25 10:21:34;;;;;;;;;;;;;;;21.85;53.20;100446.22;5001723;28;19932;-80
2022/07/25 10:24:06;;;;;;;;;;;;;;;21.66;53.61;100432.69;5009050;28;19927;-79
2022/07/25 10:26:33;;;;;;;;;;;;;;;21.71;53.89;100427.88;5007575;28;19972;-80
2022/07/25 10:29:00;;;;;;;;;;;;;;;22.11;53.11;100428.44;5003898;28;19918;-80
2022/07/25 10:31:31;;;;;;;;;;;;;;;22.08;57.33;100428.66;5006305;28;19917;-79
2022/07/25 10:34:01;;;;;;;;;;;;;;;21.94;59.74;100432.34;4999155;28;20001;-80
2022/07/25 10:36:30;;;;;;;;;;;;;;;21.55;62.76;100437.84;4988204;28;19928;-80
2022/07/25 10:38:56;;;;;;;;;;;;;;;21.60;63.42;100433.94;4994311;28;19933;-80
2022/07/25 10:41:28;;;;;;;;;;;;;;;21.57;64.46;100405.03;5004265;28;19922;-81
2022/07/25 10:44:00;;;;;;;;;;;;;;;21.39;64.97;100409.84;5022811;28;19963;-79
2022/07/25 10:46:29;;;;;;;;;;;;;;;21.22;65.02;100427.84;5002984;28;19925;-79
2022/07/25 10:49:05;;;;;;;;;;;;;;;21.53;62.44;100437.97;5000573;28;19941;-80
2022/07/25 10:51:32;;;;;;;;;;;;;;;21.47;64.50;100454.25;5005535;28;20012;-80
2022/07/25 10:53:57;;;;;;;;;;;;;;;21.67;61.66;100466.06;5005587;28;19926;-79
2022/07/25 10:56:25;;;;;;;;;;;;;;;21.65;61.05;100474.13;5000089;28;20027;-80
2022/07/25 10:58:51;;;;;;;;;;;;;;;21.56;61.29;100473.91;4996685;28;19921;-79
2022/07/25 11:01:23;;;;;;;;;;;;;;;21.65;60.98;100476.78;5003860;28;19956;-80
2022/07/25 11:03:49;;;;;;;;;;;;;;;21.60;60.85;100476.22;5007279;28;19917;-80
2022/07/25 11:06:15;;;;;;;;;;;;;;;21.69;59.64;100467.66;5002286;28;19987;-80
2022/07/25 11:08:41;;;;;;;;;;;;;;;21.77;60.21;100464.47;5009396;28;20020;-80
2022/07/25 11:11:07;;;;;;;;;;;;;;;21.74;59.46;100470.81;5010204;28;20000;-80
2022/07/25 11:13:40;;;;;;;;;;;;;;;21.85;58.13;100462.94;5006921;28;20000;-80
2022/07/25 11:16:05;;;;;;;;;;;;;;;21.70;58.76;100471.13;5007548;28;19921;-80
2022/07/25 11:18:32;;;;;;;;;;;;;;;21.64;59.46;100464.50;5006363;28;20358;-80
2022/07/25 11:20:58;;;;;;;;;;;;;;;21.64;59.04;100450.44;5007737;28;19929;-80
2022/07/25 11:23:23;;;;;;;;;;;;;;;21.70;59.54;100447.34;5005702;28;19949;-80
2022/07/25 11:25:50;;;;;;;;;;;;;;;21.80;57.99;100440.44;4984738;28;19957;-80
2022/07/25 11:28:15;;;;;;;;;;;;;;;21.82;58.21;100449.94;5002232;28;20387;-80
2022/07/25 11:30:40;;;;;;;;;;;;;;;21.86;59.48;100453.22;4999918;28;19926;-80
2022/07/25 11:33:06;;;;;;;;;;;;;;;22.13;57.32;100458.28;5010558;28;19922;-80
2022/07/25 11:35:32;;;;;;;;;;;;;;;21.99;58.12;100467.22;5012290;28;19921;-80
2022/07/25 11:38:02;;;;;;;;;;;;;;;22.11;57.39;100470.78;5004278;28;19922;-80
2022/07/25 11:40:27;;;;;;;;;;;;;;;21.89;58.44;100484.75;5013308;28;19924;-80
2022/07/25 11:42:58;;;;;;;;;;;;;;;21.93;57.90;100470.31;4996885;28;19926;-80
2022/07/25 11:45:25;;;;;;;;;;;;;;;22.03;56.67;100475.78;5010810;28;19917;-80
2022/07/25 11:48:06;;;;;;;;;;;;;;;22.22;56.25;100474.34;5003056;28;19975;-81
2022/07/25 11:50:32;;;;;;;;;;;;;;;21.98;57.63;100482.25;5000609;28;19960;-80
2022/07/25 11:52:59;;;;;;;;;;;;;;;21.93;57.80;100480.91;4998320;28;19968;-80
2022/07/25 11:55:27;;;;;;;;;;;;;;;21.94;57.63;100482.59;4999182;28;19913;-80
2022/07/25 11:57:56;;;;;;;;;;;;;;;22.24;58.00;100476.84;5007280;28;20384;-80
2022/07/25 12:00:22;;;;;;;;;;;;;;;22.13;57.42;100474.16;5005614;28;19921;-80
2022/07/25 12:02:48;;;;;;;;;;;;;;;22.10;56.98;100475.25;5007191;28;19925;-80
2022/07/25 12:05:19;;;;;;;;;;;;;;;22.27;56.31;100466.03;5005019;28;19933;-80
2022/07/25 12:07:50;;;;;;;;;;;;;;;22.22;55.70;100465.56;5008719;28;19921;-80
2022/07/25 12:10:20;;;;;;;;;;;;;;;22.27;56.19;100468.69;5004334;28;19913;-80
2022/07/25 12:12:55;;;;;;;;;;;;;;;22.20;56.48;100470.94;5004907;28;20273;-80
2022/07/25 12:15:22;;;;;;;;;;;;;;;22.32;56.26;100472.72;5007905;28;19921;-80
2022/07/25 12:17:51;;;;;;;;;;;;;;;22.36;56.95;100476.84;5000833;28;19922;-80
2022/07/25 12:20:18;;;;;;;;;;;;;;;22.27;56.30;100484.56;5004447;28;20350;-80
2022/07/25 12:22:43;;;;;;;;;;;;;;;22.59;54.58;100482.19;5005928;28;19929;-80
2022/07/25 12:25:09;;;;;;;;;;;;;;;22.58;54.50;100475.22;5004309;28;19925;-80
2022/07/25 12:27:34;;;;;;;;;;;;;;;22.63;53.53;100481.88;5005182;28;19925;-80
2022/07/25 12:30:00;;;;;;;;;;;;;;;22.58;53.44;100481.34;5001718;28;19932;-80
2022/07/25 12:32:25;;;;;;;;;;;;;;;22.68;52.86;100489.44;5003825;28;20012;-80
2022/07/25 12:34:50;;;;;;;;;;;;;;;22.58;52.41;100486.63;5004303;28;19929;-79